createdAt,value
2019-01-02T00:01:04.588Z,99069.28
2019-01-02T00:03:33.603Z,99077.10
2019-01-02T00:06:02.795Z,99072.97
2019-01-02T00:08:31.840Z,99084.77
2019-01-02T00:11:01.178Z,99068.91
2019-01-02T00:13:30.696Z,99075.56
2019-01-02T00:15:59.759Z,99083.41
2019-01-02T00:18:29.223Z,99074.92
2019-01-02T00:20:58.442Z,99066.28
2019-01-02T00:23:28.054Z,99068.13
2019-01-02T00:25:57.182Z,99057.90
2019-01-02T00:28:26.328Z,99054.11
2019-01-02T00:30:55.479Z,99041.59
2019-01-02T00:33:24.567Z,99055.48
2019-01-02T00:35:54.031Z,99052.94
2019-01-02T00:38:23.253Z,99047.35
2019-01-02T00:40:52.648Z,99056.83
2019-01-02T00:43:21.748Z,99074.55
2019-01-02T00:45:51.249Z,99063.31
2019-01-02T00:48:20.413Z,99073.23
2019-01-02T00:50:49.669Z,99069.21
2019-01-02T00:53:18.755Z,99066.13
2019-01-02T00:55:48.183Z,99074.69
2019-01-02T00:58:17.342Z,99089.31
2019-01-02T01:00:46.825Z,99077.98
2019-01-02T01:03:15.948Z,99089.20
2019-01-02T01:05:45.466Z,99094.02
2019-01-02T01:08:14.599Z,99080.66
2019-01-02T01:10:43.998Z,99088.09
2019-01-02T01:13:13.159Z,99098.12
2019-01-02T01:15:42.654Z,99099.47
2019-01-02T01:18:11.757Z,99099.15
2019-01-02T01:20:41.052Z,99116.40
2019-01-02T01:26:50.842Z,99110.50
2019-01-02T01:29:19.914Z,99103.53
2019-01-02T01:31:49.570Z,99125.15
2019-01-02T01:34:18.747Z,99113.09
2019-01-02T01:36:47.926Z,99126.55
2019-01-02T01:39:17.395Z,99119.17
2019-01-02T01:41:46.479Z,99131.73
2019-01-02T01:44:15.608Z,99127.03
2019-01-02T01:46:44.844Z,99129.68
2019-01-02T01:49:14.020Z,99134.86
2019-01-02T01:51:43.604Z,99129.68
2019-01-02T01:54:12.810Z,99135.31
2019-01-02T01:56:41.970Z,99130.17
2019-01-02T01:59:11.368Z,99132.32
2019-01-02T02:01:40.564Z,99136.69
2019-01-02T02:04:09.991Z,99120.67
2019-01-02T02:06:39.083Z,99143.54
2019-01-02T02:09:08.392Z,99136.61
2019-01-02T02:11:37.857Z,99136.88
2019-01-02T02:14:06.965Z,99131.69
2019-01-02T02:16:36.112Z,99145.50
2019-01-02T02:19:05.252Z,99138.09
2019-01-02T02:21:34.390Z,99140.68
2019-01-02T02:24:04.138Z,99138.94
2019-01-02T02:26:33.226Z,99140.68
2019-01-02T02:29:02.468Z,99137.22
2019-01-02T02:31:32.085Z,99139.05
2019-01-02T02:34:01.615Z,99135.23
2019-01-02T02:36:31.028Z,99145.69
2019-01-02T02:39:00.589Z,99146.42
2019-01-02T02:41:30.114Z,99143.86
2019-01-02T02:43:59.481Z,99147.43
2019-01-02T02:46:28.944Z,99138.38
2019-01-02T02:48:58.093Z,99146.16
2019-01-02T02:51:27.630Z,99139.25
2019-01-02T02:53:57.216Z,99141.08
2019-01-02T02:56:26.672Z,99154.09
2019-01-02T02:58:55.892Z,99150.55
2019-01-02T03:01:25.429Z,99148.88
2019-01-02T03:03:54.812Z,99158.38
2019-01-02T03:06:25.576Z,99148.91
2019-01-02T03:08:55.056Z,99160.84
2019-01-02T03:11:24.286Z,99155.19
2019-01-02T03:13:53.951Z,99150.36
2019-01-02T03:16:23.437Z,99161.61
2019-01-02T03:18:52.862Z,99144.41
2019-01-02T03:21:22.225Z,99156.23
2019-01-02T03:23:51.658Z,99150.05
2019-01-02T03:26:20.847Z,99161.61
2019-01-02T03:28:49.861Z,99164.63
2019-01-02T03:31:19.473Z,99163.70
2019-01-02T03:33:48.983Z,99159.78
2019-01-02T03:36:18.127Z,99174.94
2019-01-02T03:38:47.296Z,99166.48
2019-01-02T03:41:16.422Z,99164.87
2019-01-02T03:43:45.563Z,99172.20
2019-01-02T03:46:14.723Z,99185.61
2019-01-02T03:48:43.815Z,99189.11
2019-01-02T03:51:12.893Z,99183.87
2019-01-02T03:53:42.105Z,99202.02
2019-01-02T03:56:11.127Z,99204.12
2019-01-02T03:58:40.690Z,99201.74
2019-01-02T04:01:09.764Z,99202.84
2019-01-02T04:03:38.796Z,99213.06
2019-01-02T04:06:07.991Z,99206.95
2019-01-02T04:08:37.107Z,99210.72
2019-01-02T04:11:06.338Z,99214.52
2019-01-02T04:13:35.437Z,99220.46
2019-01-02T04:16:04.603Z,99235.44
2019-01-02T04:18:34.384Z,99232.78
2019-01-02T04:21:03.964Z,99221.06
2019-01-02T04:23:33.662Z,99231.03
2019-01-02T04:26:02.742Z,99234.38
2019-01-02T04:28:31.816Z,99234.34
2019-01-02T04:31:01.196Z,99235.61
2019-01-02T04:33:30.317Z,99240.73
2019-01-02T04:35:59.349Z,99244.95
2019-01-02T04:38:28.747Z,99250.22
2019-01-02T04:40:57.900Z,99248.38
2019-01-02T04:43:27.008Z,99265.57
2019-01-02T04:45:56.205Z,99256.98
2019-01-02T04:48:25.298Z,99261.23
2019-01-02T04:50:54.413Z,99255.14
2019-01-02T04:53:23.569Z,99255.86
2019-01-02T04:55:52.710Z,99257.70
2019-01-02T04:58:21.793Z,99275.38
2019-01-02T05:00:50.947Z,99272.05
2019-01-02T05:03:20.171Z,99276.61
2019-01-02T05:05:49.296Z,99272.17
2019-01-02T05:08:18.318Z,99274.66
2019-01-02T05:10:47.578Z,99275.83
2019-01-02T05:13:16.656Z,99285.66
2019-01-02T05:15:45.859Z,99284.20
2019-01-02T05:18:14.958Z,99290.45
2019-01-02T05:20:44.110Z,99291.36
2019-01-02T05:23:13.181Z,99294.41
2019-01-02T05:25:42.312Z,99290.84
2019-01-02T05:28:11.485Z,99292.55
2019-01-02T05:30:40.660Z,99296.54
2019-01-02T05:33:09.741Z,99297.38
2019-01-02T05:35:38.917Z,99297.77
2019-01-02T05:38:08.035Z,99300.42
2019-01-02T05:40:37.057Z,99306.45
2019-01-02T05:43:06.159Z,99306.06
2019-01-02T05:45:35.200Z,99322.92
2019-01-02T05:48:04.311Z,99316.66
2019-01-02T05:50:33.512Z,99317.24
2019-01-02T05:53:02.660Z,99317.41
2019-01-02T05:55:31.784Z,99333.62
2019-01-02T05:58:01.072Z,99327.11
2019-01-02T06:00:30.106Z,99334.92
2019-01-02T06:02:59.196Z,99336.63
2019-01-02T06:05:28.229Z,99331.91
2019-01-02T06:07:57.363Z,99336.25
2019-01-02T06:10:27.527Z,99340.69
2019-01-02T06:12:56.530Z,99339.95
2019-01-02T06:15:25.761Z,99341.66
2019-01-02T06:17:54.932Z,99347.78
2019-01-02T06:20:24.088Z,99346.30
2019-01-02T06:22:53.111Z,99354.43
2019-01-02T06:25:22.284Z,99356.63
2019-01-02T06:27:51.429Z,99360.87
2019-01-02T06:30:20.535Z,99369.59
2019-01-02T06:32:49.620Z,99364.30
2019-01-02T06:35:18.764Z,99356.37
2019-01-02T06:37:48.007Z,99365.64
2019-01-02T06:40:17.046Z,99369.25
2019-01-02T06:42:46.712Z,99376.98
2019-01-02T06:45:17.935Z,99369.25
2019-01-02T06:47:47.062Z,99377.02
2019-01-02T06:50:24.357Z,99382.48
2019-01-02T06:52:53.467Z,99386.47
2019-01-02T06:55:22.900Z,99391.69
2019-01-02T06:57:52.234Z,99392.59
2019-01-02T07:00:30.676Z,99393.78
2019-01-02T07:02:59.855Z,99394.00
2019-01-02T07:05:28.918Z,99398.52
2019-01-02T07:07:58.115Z,99402.30
2019-01-02T07:10:27.419Z,99406.46
2019-01-02T07:12:56.649Z,99405.59
2019-01-02T07:15:25.860Z,99409.96
2019-01-02T07:17:55.252Z,99412.45
2019-01-02T07:20:24.457Z,99414.79
2019-01-02T07:22:53.563Z,99417.34
2019-01-02T07:25:22.823Z,99414.30
2019-01-02T07:27:52.131Z,99424.73
2019-01-02T07:30:23.577Z,99423.44
2019-01-02T07:32:52.794Z,99426.48
2019-01-02T07:36:01.503Z,99415.63
2019-01-02T07:39:11.179Z,99419.58
2019-01-02T07:42:19.079Z,99423.28
2019-01-02T07:45:20.836Z,99432.00
2019-01-02T07:48:26.903Z,99428.34
2019-01-02T07:51:35.766Z,99427.60
2019-01-02T07:54:46.266Z,99439.20
2019-01-02T07:57:55.363Z,99437.97
2019-01-02T08:00:48.796Z,99439.76
2019-01-02T08:03:35.521Z,99442.67
2019-01-02T08:06:54.600Z,99448.05
2019-01-02T08:09:54.048Z,99443.50
2019-01-02T08:12:58.894Z,99447.56
2019-01-02T08:16:05.254Z,99447.04
2019-01-02T08:19:21.957Z,99453.48
2019-01-02T08:22:28.055Z,99447.45
2019-01-02T08:25:29.257Z,99461.43
2019-01-02T08:28:37.410Z,99458.84
2019-01-02T08:31:29.319Z,99460.59
2019-01-02T08:34:43.978Z,99459.22
2019-01-02T08:38:05.609Z,99462.30
2019-01-02T08:41:17.723Z,99456.42
2019-01-02T08:44:27.496Z,99470.33
2019-01-02T08:47:31.184Z,99473.75
2019-01-02T08:50:24.240Z,99474.38
2019-01-02T08:53:19.867Z,99474.03
2019-01-02T08:56:30.088Z,99482.27
2019-01-02T08:59:28.706Z,99488.00
2019-01-02T09:02:40.894Z,99491.93
2019-01-02T09:05:36.766Z,99491.61
2019-01-02T09:08:43.204Z,99496.48
2019-01-02T09:12:02.518Z,99497.87
2019-01-02T09:15:07.371Z,99502.16
2019-01-02T09:18:30.792Z,99506.18
2019-01-02T09:21:31.536Z,99505.30
2019-01-02T09:24:32.505Z,99512.73
2019-01-02T09:27:27.220Z,99516.55
2019-01-02T09:30:47.036Z,99523.88
2019-01-02T09:34:02.612Z,99535.33
2019-01-02T09:37:07.406Z,99537.53
2019-01-02T09:40:10.162Z,99543.50
2019-01-02T09:43:14.044Z,99552.47
2019-01-02T09:46:05.942Z,99556.78
2019-01-02T09:49:26.935Z,99548.64
2019-01-02T09:52:49.599Z,99549.27
2019-01-02T09:55:56.496Z,99549.23
2019-01-02T09:58:58.327Z,99555.64
2019-01-02T10:01:43.909Z,99553.54
2019-01-02T10:05:00.351Z,99564.79
2019-01-02T10:07:58.907Z,99564.44
2019-01-02T10:11:07.468Z,99562.05
2019-01-02T10:14:32.626Z,99560.14
2019-01-02T10:17:54.729Z,99565.40
2019-01-02T10:20:46.375Z,99560.96
2019-01-02T10:23:46.460Z,99562.95
2019-01-02T10:26:39.958Z,99568.81
2019-01-02T10:29:35.378Z,99565.54
2019-01-02T10:32:31.325Z,99578.27
2019-01-02T10:35:28.422Z,99576.36
2019-01-02T10:38:35.158Z,99576.13
2019-01-02T10:41:43.069Z,99590.30
2019-01-02T10:45:06.723Z,99594.41
2019-01-02T10:48:15.956Z,99585.23
2019-01-02T10:51:14.687Z,99592.22
2019-01-02T10:54:20.728Z,99578.48
2019-01-02T10:57:20.764Z,99595.98
2019-01-02T11:00:24.597Z,99599.36
2019-01-02T11:03:29.021Z,99602.66
2019-01-02T11:07:00.649Z,99609.98
2019-01-02T11:10:15.530Z,99612.33
2019-01-02T11:13:15.232Z,99610.41
2019-01-02T11:16:08.160Z,99613.77
2019-01-02T11:19:20.264Z,99628.22
2019-01-02T11:22:21.583Z,99623.03
2019-01-02T11:25:55.073Z,99614.51
2019-01-02T11:28:47.647Z,99621.20
2019-01-02T11:31:52.253Z,99624.01
2019-01-02T11:34:48.623Z,99626.08
2019-01-02T11:37:34.375Z,99617.48
2019-01-02T11:40:45.695Z,99624.39
2019-01-02T11:44:10.212Z,99624.62
2019-01-02T11:46:39.636Z,99634.73
2019-01-02T11:49:08.927Z,99636.00
2019-01-02T11:51:38.261Z,99643.02
2019-01-02T11:54:07.685Z,99637.02
2019-01-02T11:56:36.883Z,99633.44
2019-01-02T11:59:06.065Z,99633.50
2019-01-02T12:01:35.239Z,99640.75
2019-01-02T12:04:05.194Z,99638.82
2019-01-02T12:06:34.347Z,99643.36
2019-01-02T12:09:08.044Z,99636.34
2019-01-02T12:11:37.241Z,99645.73
2019-01-02T12:14:06.395Z,99642.20
2019-01-02T12:16:35.426Z,99639.05
2019-01-02T12:19:04.571Z,99635.05
2019-01-02T12:21:33.689Z,99648.27
2019-01-02T12:24:02.669Z,99643.02
2019-01-02T12:26:31.723Z,99646.02
2019-01-02T12:29:00.749Z,99650.03
2019-01-02T12:31:29.868Z,99656.79
2019-01-02T12:33:58.919Z,99670.86
2019-01-02T12:36:28.033Z,99670.32
2019-01-02T12:38:57.062Z,99664.75
2019-01-02T12:41:26.168Z,99667.91
2019-01-02T12:43:55.191Z,99673.83
2019-01-02T12:46:24.235Z,99679.17
2019-01-02T12:48:53.402Z,99670.78
2019-01-02T12:51:22.599Z,99672.45
2019-01-02T12:53:51.896Z,99674.41
2019-01-02T12:56:21.090Z,99676.69
2019-01-02T12:58:50.272Z,99674.70
2019-01-02T13:01:27.800Z,99681.37
2019-01-02T13:04:42.332Z,99676.99
2019-01-02T13:08:19.971Z,99681.11
2019-01-02T13:11:00.243Z,99693.64
2019-01-02T13:13:52.380Z,99706.97
2019-01-02T13:16:46.743Z,99700.41
2019-01-02T13:20:21.109Z,99705.44
2019-01-02T13:23:37.861Z,99710.25
2019-01-02T13:26:23.522Z,99714.10
2019-01-02T13:29:39.594Z,99709.45
2019-01-02T13:32:58.001Z,99723.93
2019-01-02T13:36:08.417Z,99722.17
2019-01-02T13:38:51.782Z,99724.62
2019-01-02T13:42:01.127Z,99734.30
2019-01-02T13:45:10.354Z,99738.93
2019-01-02T13:48:16.431Z,99738.55
2019-01-02T13:50:58.152Z,99746.66
2019-01-02T13:53:27.418Z,99747.35
2019-01-02T13:55:56.608Z,99754.02
2019-01-02T13:58:26.209Z,99751.33
2019-01-02T14:00:55.853Z,99762.38
2019-01-02T14:03:25.345Z,99770.95
2019-01-02T14:05:54.844Z,99769.28
2019-01-02T14:08:23.901Z,99773.67
2019-01-02T14:10:53.130Z,99777.98
2019-01-02T14:13:22.357Z,99780.57
2019-01-02T14:15:51.593Z,99789.52
2019-01-02T14:18:20.752Z,99792.41
2019-01-02T14:20:49.905Z,99794.99
2019-01-02T14:23:20.173Z,99790.65
2019-01-02T14:25:49.604Z,99793.82
2019-01-02T14:28:18.710Z,99796.44
2019-01-02T14:30:47.955Z,99791.27
2019-01-02T14:33:17.501Z,99795.64
2019-01-02T14:35:46.802Z,99792.13
2019-01-02T14:38:16.019Z,99798.73
2019-01-02T14:40:45.573Z,99797.98
2019-01-02T14:43:14.682Z,99799.70
2019-01-02T14:45:43.959Z,99798.36
2019-01-02T14:48:13.099Z,99806.13
2019-01-02T14:50:42.385Z,99810.02
2019-01-02T14:53:12.365Z,99806.48
2019-01-02T14:55:41.619Z,99809.48
2019-01-02T14:58:14.346Z,99805.60
2019-01-02T15:00:46.420Z,99810.53
2019-01-02T15:03:18.092Z,99814.14
2019-01-02T15:05:47.461Z,99814.88
2019-01-02T15:08:16.854Z,99819.19
2019-01-02T15:10:47.717Z,99820.52
2019-01-02T15:13:16.969Z,99828.21
2019-01-02T15:15:46.174Z,99825.50
2019-01-02T15:18:15.377Z,99831.09
2019-01-02T15:20:44.652Z,99833.18
2019-01-02T15:23:14.469Z,99836.65
2019-01-02T15:25:43.926Z,99842.13
2019-01-02T15:28:13.177Z,99847.67
2019-01-02T15:30:42.376Z,99851.52
2019-01-02T15:33:11.641Z,99867.02
2019-01-02T15:35:40.917Z,99857.48
2019-01-02T15:38:10.051Z,99865.77
2019-01-02T15:40:39.142Z,99863.59
2019-01-02T15:43:08.350Z,99875.20
2019-01-02T15:45:37.418Z,99884.68
2019-01-02T15:48:06.511Z,99880.43
2019-01-02T15:50:35.657Z,99879.37
2019-01-02T15:53:04.877Z,99888.11
2019-01-02T15:55:34.028Z,99892.33
2019-01-02T15:58:03.128Z,99895.28
2019-01-02T16:00:32.525Z,99897.88
2019-01-02T16:03:01.761Z,99900.88
2019-01-02T16:05:42.961Z,99901.34
2019-01-02T16:08:12.052Z,99908.61
2019-01-02T16:10:41.203Z,99912.95
2019-01-02T16:13:11.466Z,99909.77
2019-01-02T16:15:40.948Z,99915.78
2019-01-02T16:18:10.010Z,99920.73
2019-01-02T16:20:39.126Z,99920.62
2019-01-02T16:23:08.658Z,99927.91
2019-01-02T16:25:37.853Z,99932.16
2019-01-02T16:28:07.015Z,99932.16
2019-01-02T16:30:36.027Z,99938.53
2019-01-02T16:33:05.431Z,99938.34
2019-01-02T16:35:34.517Z,99943.70
2019-01-02T16:38:03.771Z,99945.31
2019-01-02T16:40:32.964Z,99944.72
2019-01-02T16:43:02.466Z,99944.34
2019-01-02T16:45:32.011Z,99955.07
2019-01-02T16:48:01.397Z,99957.28
2019-01-02T16:50:30.556Z,99956.14
2019-01-02T16:53:01.218Z,99958.08
2019-01-02T16:55:30.451Z,99955.33
2019-01-02T16:57:59.647Z,99965.03
2019-01-02T17:00:28.874Z,99963.27
2019-01-02T17:02:58.205Z,99973.73
2019-01-02T17:05:27.436Z,99975.16
2019-01-02T17:07:56.608Z,99979.10
2019-01-02T17:10:25.784Z,99975.16
2019-01-02T17:12:55.224Z,99979.63
2019-01-02T17:15:24.337Z,99977.05
2019-01-02T17:17:53.504Z,99965.64
2019-01-02T17:20:22.554Z,99972.63
2019-01-02T17:22:52.295Z,99975.63
2019-01-02T17:25:21.523Z,99978.27
2019-01-02T17:27:50.513Z,99979.62
2019-01-02T17:30:19.667Z,99990.44
2019-01-02T17:32:48.772Z,99989.15
2019-01-02T17:35:17.940Z,99981.80
2019-01-02T17:37:47.019Z,99997.00
2019-01-02T17:40:16.111Z,99998.16
2019-01-02T17:42:45.281Z,99998.94
2019-01-02T17:45:14.804Z,100009.29
2019-01-02T17:47:43.966Z,100011.83
2019-01-02T17:50:13.234Z,100005.98
2019-01-02T17:52:42.527Z,100010.69
2019-01-02T17:55:11.736Z,100010.22
2019-01-02T17:57:41.014Z,100009.39
2019-01-02T18:00:12.448Z,100017.06
2019-01-02T18:02:42.023Z,100025.05
2019-01-02T18:05:11.175Z,100027.11
2019-01-02T18:07:40.378Z,100033.17
2019-01-02T18:10:09.978Z,100028.05
2019-01-02T18:13:00.518Z,100032.70
2019-01-02T18:15:29.889Z,100026.23
2019-01-02T18:17:59.081Z,100032.81
2019-01-02T18:20:28.311Z,100040.36
2019-01-02T18:22:58.124Z,100037.77
2019-01-02T18:25:27.239Z,100046.42
2019-01-02T18:27:56.460Z,100043.63
2019-01-02T18:30:25.584Z,100044.93
2019-01-02T18:32:54.793Z,100050.83
2019-01-02T18:35:24.994Z,100048.18
2019-01-02T18:37:54.093Z,100059.53
2019-01-02T18:40:23.255Z,100065.38
2019-01-02T18:42:58.006Z,100067.66
2019-01-02T18:45:27.353Z,100073.71
2019-01-02T18:47:56.395Z,100073.30
2019-01-02T18:50:26.778Z,100072.47
2019-01-02T18:52:59.711Z,100073.66
2019-01-02T18:55:44.833Z,100079.05
2019-01-02T18:58:20.422Z,100078.99
2019-01-02T19:00:51.559Z,100081.17
2019-01-02T19:03:20.957Z,100077.40
2019-01-02T19:05:50.411Z,100082.16
2019-01-02T19:08:19.780Z,100088.88
2019-01-02T19:10:50.150Z,100085.67
2019-01-02T19:13:19.504Z,100084.69
2019-01-02T19:15:48.720Z,100090.63
2019-01-02T19:18:17.901Z,100091.52
2019-01-02T19:20:53.611Z,100092.25
2019-01-02T19:23:37.989Z,100096.27
2019-01-02T19:26:08.212Z,100098.45
2019-01-02T19:28:37.418Z,100101.16
2019-01-02T19:31:06.601Z,100103.98
2019-01-02T19:33:36.100Z,100106.16
2019-01-02T19:36:05.393Z,100111.39
2019-01-02T19:38:34.626Z,100108.56
2019-01-02T19:41:15.028Z,100109.33
2019-01-02T19:44:00.810Z,100116.92
2019-01-02T19:46:30.402Z,100121.89
2019-01-02T19:48:59.741Z,100120.95
2019-01-02T19:51:29.107Z,100119.36
2019-01-02T19:53:58.377Z,100123.77
2019-01-02T19:56:27.662Z,100115.83
2019-01-02T19:58:56.923Z,100120.19
2019-01-02T20:01:27.493Z,100127.84
2019-01-02T20:03:56.679Z,100122.51
2019-01-02T20:06:42.294Z,100131.56
2019-01-02T20:09:11.551Z,100125.25
2019-01-02T20:11:41.339Z,100127.63
2019-01-02T20:14:10.543Z,100126.75
2019-01-02T20:16:39.898Z,100128.34
2019-01-02T20:19:26.658Z,100136.51
2019-01-02T20:21:56.564Z,100131.06
2019-01-02T20:27:11.407Z,100134.73
2019-01-02T20:29:41.026Z,100133.73
2019-01-02T20:32:10.284Z,100132.44
2019-01-02T20:34:39.552Z,100125.63
2019-01-02T20:37:08.862Z,100132.56
2019-01-02T20:39:37.985Z,100132.50
2019-01-02T20:42:08.475Z,100135.03
2019-01-02T20:44:37.668Z,100128.09
2019-01-02T20:47:06.965Z,100124.21
2019-01-02T20:49:36.327Z,100128.41
2019-01-02T20:52:05.530Z,100133.58
2019-01-02T20:54:34.728Z,100123.00
2019-01-02T20:57:04.065Z,100119.70
2019-01-02T20:59:33.415Z,100118.89
2019-01-02T21:02:03.347Z,100116.36
2019-01-02T21:04:49.435Z,100114.28
2019-01-02T21:07:18.670Z,100121.63
2019-01-02T21:09:47.800Z,100117.27
2019-01-02T21:12:17.128Z,100109.10
2019-01-02T21:14:47.492Z,100119.04
2019-01-02T21:17:17.397Z,100115.28
2019-01-02T21:19:48.187Z,100113.52
2019-01-02T21:22:17.985Z,100122.83
2019-01-02T21:24:47.797Z,100122.45
2019-01-02T21:27:17.976Z,100122.64
2019-01-02T21:29:47.774Z,100121.55
2019-01-02T21:32:17.974Z,100126.20
2019-01-02T21:34:48.041Z,100126.80
2019-01-02T21:37:17.693Z,100120.35
2019-01-02T21:39:47.887Z,100126.35
2019-01-02T21:42:17.588Z,100122.80
2019-01-02T21:44:47.663Z,100128.72
2019-01-02T21:47:17.430Z,100125.03
2019-01-02T21:49:47.361Z,100125.73
2019-01-02T21:52:16.753Z,100124.44
2019-01-02T21:54:45.946Z,100122.52
2019-01-02T21:57:15.142Z,100124.50
2019-01-02T21:59:44.399Z,100123.14
2019-01-02T22:02:13.602Z,100114.92
2019-01-02T22:04:42.683Z,100113.05
2019-01-02T22:07:11.777Z,100112.11
2019-01-02T22:09:40.900Z,100108.64
2019-01-02T22:12:09.986Z,100110.88
2019-01-02T22:14:39.041Z,100110.34
2019-01-02T22:17:08.109Z,100108.58
2019-01-02T22:19:37.212Z,100115.52
2019-01-02T22:22:06.317Z,100117.97
2019-01-02T22:24:35.550Z,100117.74
2019-01-02T22:27:04.639Z,100123.97
2019-01-02T22:29:33.834Z,100120.44
2019-01-02T22:32:03.027Z,100134.17
2019-01-02T22:34:32.254Z,100131.25
2019-01-02T22:37:01.372Z,100127.84
2019-01-02T22:39:30.453Z,100132.75
2019-01-02T22:41:59.479Z,100136.33
2019-01-02T22:44:29.836Z,100143.13
2019-01-02T22:46:58.994Z,100148.00
2019-01-02T22:49:28.033Z,100143.58
2019-01-02T22:51:57.213Z,100147.56
2019-01-02T22:54:26.573Z,100155.95
2019-01-02T22:56:55.731Z,100147.80
2019-01-02T22:59:24.912Z,100157.86
2019-01-02T23:02:02.186Z,100159.45
2019-01-02T23:04:50.336Z,100160.55
2019-01-02T23:07:44.468Z,100164.82
2019-01-02T23:10:31.253Z,100164.24
2019-01-02T23:13:22.425Z,100164.52
2019-01-02T23:16:22.837Z,100166.08
2019-01-02T23:19:09.862Z,100169.94
2019-01-02T23:22:13.096Z,100165.66
2019-01-02T23:25:09.822Z,100164.68
2019-01-02T23:27:56.839Z,100172.52
2019-01-02T23:30:38.943Z,100167.26
2019-01-02T23:33:26.183Z,100169.30
2019-01-02T23:36:20.484Z,100169.63
2019-01-02T23:39:09.638Z,100170.59
2019-01-02T23:41:51.864Z,100175.13
2019-01-02T23:44:38.444Z,100178.90
2019-01-02T23:47:21.915Z,100180.93
2019-01-02T23:50:03.279Z,100181.60
2019-01-02T23:53:09.807Z,100181.50
2019-01-02T23:56:03.607Z,100186.25
2019-01-02T23:59:03.957Z,100190.53
